createdAt,value
2022-11-12T00:01:12.969Z,102210.65
2022-11-12T00:04:25.198Z,102209.80
2022-11-12T00:07:36.435Z,102212.33
2022-11-12T00:10:48.075Z,102204.36
2022-11-12T00:13:59.191Z,102207.02
2022-11-12T00:17:10.556Z,102197.23
2022-11-12T00:20:22.592Z,102210.49
2022-11-12T00:23:34.004Z,102207.14
2022-11-12T00:26:47.766Z,102208.81
2022-11-12T00:29:58.727Z,102215.95
2022-11-12T00:33:10.128Z,102217.22
2022-11-12T00:36:21.816Z,102212.20
2022-11-12T00:39:33.079Z,102206.05
2022-11-12T00:42:43.577Z,102207.88
2022-11-12T00:45:54.880Z,102204.81
2022-11-12T00:49:05.994Z,102205.79
2022-11-12T00:52:17.051Z,102201.30
2022-11-12T00:55:28.486Z,102203.95
2022-11-12T00:58:39.975Z,102205.09
2022-11-12T01:01:51.254Z,102196.28
2022-11-12T01:05:02.158Z,102193.63
2022-11-12T01:08:13.004Z,102189.31
2022-11-12T01:11:27.060Z,102180.94
2022-11-12T01:14:39.256Z,102174.12
2022-11-12T01:17:50.335Z,102182.89
2022-11-12T01:21:04.484Z,102178.85
2022-11-12T01:24:16.115Z,102177.18
2022-11-12T01:27:27.869Z,102178.16
2022-11-12T01:30:38.950Z,102173.84
2022-11-12T01:33:54.249Z,102188.07
2022-11-12T01:37:05.813Z,102183.62
2022-11-12T01:40:18.250Z,102177.46
2022-11-12T01:43:29.959Z,102179.42
2022-11-12T01:46:50.720Z,102183.33
2022-11-12T01:50:09.134Z,102184.46
2022-11-12T01:53:21.616Z,102183.89
2022-11-12T01:56:34.081Z,102181.67
2022-11-12T01:59:49.980Z,102178.33
2022-11-12T02:03:03.011Z,102187.26
2022-11-12T02:06:15.522Z,102177.91
2022-11-12T02:09:25.876Z,102174.69
2022-11-12T02:12:55.181Z,102177.49
2022-11-12T02:16:08.786Z,102167.87
2022-11-12T02:19:21.293Z,102167.02
2022-11-12T02:22:32.356Z,102164.36
2022-11-12T02:25:43.203Z,102166.29
2022-11-12T02:28:54.460Z,102167.27
2022-11-12T02:32:05.249Z,102177.16
2022-11-12T02:35:17.301Z,102175.64
2022-11-12T02:38:28.859Z,102169.64
2022-11-12T02:41:40.204Z,102183.17
2022-11-12T02:44:51.774Z,102174.52
2022-11-12T02:48:03.173Z,102178.27
2022-11-12T02:51:14.661Z,102184.55
2022-11-12T02:54:26.363Z,102181.08
2022-11-12T02:57:38.435Z,102184.70
2022-11-12T03:00:51.093Z,102184.82
2022-11-12T03:04:01.071Z,102196.67
2022-11-12T03:07:13.019Z,102194.56
2022-11-12T03:10:24.207Z,102193.87
2022-11-12T03:13:36.591Z,102196.94
2022-11-12T03:16:47.603Z,102193.71
2022-11-12T03:19:58.235Z,102188.95
2022-11-12T03:23:11.934Z,102200.09
2022-11-12T03:26:22.852Z,102196.30
2022-11-12T03:29:33.959Z,102201.44
2022-11-12T03:32:45.062Z,102198.73
2022-11-12T03:35:56.606Z,102197.33
2022-11-12T03:39:08.160Z,102198.71
2022-11-12T03:42:19.087Z,102197.42
2022-11-12T03:45:31.384Z,102201.56
2022-11-12T03:48:41.207Z,102193.33
2022-11-12T03:51:53.823Z,102194.82
2022-11-12T03:55:05.702Z,102197.99
2022-11-12T03:58:16.802Z,102192.52
2022-11-12T04:01:27.932Z,102205.14
2022-11-12T04:05:08.981Z,102203.98
2022-11-12T04:08:37.717Z,102202.71
2022-11-12T04:11:48.777Z,102207.66
2022-11-12T04:14:59.641Z,102198.56
2022-11-12T04:18:37.324Z,102199.08
2022-11-12T04:21:55.200Z,102203.33
2022-11-12T04:25:30.404Z,102193.38
2022-11-12T04:29:01.553Z,102198.45
2022-11-12T04:32:12.684Z,102197.28
2022-11-12T04:35:25.292Z,102203.20
2022-11-12T04:38:36.263Z,102199.39
2022-11-12T04:42:04.705Z,102201.81
2022-11-12T04:45:16.396Z,102203.27
2022-11-12T04:48:28.515Z,102207.22
2022-11-12T04:51:56.985Z,102207.85
2022-11-12T04:55:10.193Z,102209.37
2022-11-12T04:58:21.389Z,102208.90
2022-11-12T05:01:32.743Z,102212.16
2022-11-12T05:04:43.792Z,102219.59
2022-11-12T05:07:55.650Z,102220.91
2022-11-12T05:11:12.536Z,102225.84
2022-11-12T05:14:25.223Z,102220.18
2022-11-12T05:17:36.046Z,102219.83
2022-11-12T05:20:47.187Z,102226.30
2022-11-12T05:23:58.112Z,102227.50
2022-11-12T05:27:15.423Z,102240.92
2022-11-12T05:30:26.501Z,102236.84
2022-11-12T05:33:37.157Z,102241.62
2022-11-12T05:36:48.042Z,102248.81
2022-11-12T05:39:59.681Z,102252.50
2022-11-12T05:43:10.208Z,102251.88
2022-11-12T05:46:21.277Z,102258.96
2022-11-12T05:49:32.763Z,102258.34
2022-11-12T05:52:43.509Z,102263.84
2022-11-12T05:55:54.716Z,102270.92
2022-11-12T05:59:06.761Z,102272.61
2022-11-12T06:02:17.938Z,102274.38
2022-11-12T06:05:29.017Z,102278.84
2022-11-12T06:08:40.455Z,102283.15
2022-11-12T06:11:51.786Z,102295.25
2022-11-12T06:15:02.191Z,102302.20
2022-11-12T06:18:13.895Z,102302.10
2022-11-12T06:21:25.250Z,102304.52
2022-11-12T06:24:35.855Z,102307.87
2022-11-12T06:27:47.425Z,102308.50
2022-11-12T06:30:58.504Z,102317.86
2022-11-12T06:34:10.101Z,102312.23
2022-11-12T06:37:22.320Z,102321.48
2022-11-12T06:40:34.304Z,102312.39
2022-11-12T06:43:45.644Z,102299.22
2022-11-12T06:46:57.140Z,102309.31
2022-11-12T06:50:10.270Z,102311.23
2022-11-12T06:53:21.488Z,102308.72
2022-11-12T06:56:32.407Z,102307.91
2022-11-12T06:59:43.841Z,102318.02
2022-11-12T07:02:54.910Z,102323.77
2022-11-12T07:06:11.066Z,102329.27
2022-11-12T07:09:22.390Z,102322.04
2022-11-12T07:12:33.477Z,102317.05
2022-11-12T07:15:45.438Z,102321.55
2022-11-12T07:18:56.406Z,102317.27
2022-11-12T07:22:07.354Z,102316.70
2022-11-12T07:25:18.576Z,102317.80
2022-11-12T07:28:31.528Z,102312.88
2022-11-12T07:31:42.265Z,102305.42
2022-11-12T07:34:53.344Z,102308.56
2022-11-12T07:38:04.557Z,102312.41
2022-11-12T07:41:18.666Z,102312.86
2022-11-12T07:44:30.861Z,102313.21
2022-11-12T07:47:42.791Z,102313.39
2022-11-12T07:50:53.375Z,102309.36
2022-11-12T07:54:05.710Z,102313.12
2022-11-12T07:57:16.727Z,102318.70
2022-11-12T08:00:28.292Z,102326.11
2022-11-12T08:03:39.606Z,102330.98
2022-11-12T08:06:51.231Z,102319.91
2022-11-12T08:10:02.709Z,102329.91
2022-11-12T08:13:13.628Z,102334.92
2022-11-12T08:16:25.003Z,102341.44
2022-11-12T08:19:36.219Z,102329.34
2022-11-12T08:22:49.480Z,102330.69
2022-11-12T08:26:04.601Z,102334.69
2022-11-12T08:29:15.525Z,102336.83
2022-11-12T08:32:27.176Z,102339.97
2022-11-12T08:35:41.003Z,102339.44
2022-11-12T08:38:53.523Z,102334.44
2022-11-12T08:42:04.595Z,102333.89
2022-11-12T08:45:15.986Z,102349.31
2022-11-12T08:48:28.217Z,102352.55
2022-11-12T08:51:37.983Z,102355.64
2022-11-12T08:54:48.893Z,102350.91
2022-11-12T08:58:02.427Z,102352.13
2022-11-12T09:01:13.719Z,102342.08
2022-11-12T09:04:24.551Z,102338.97
2022-11-12T09:07:49.317Z,102340.88
2022-11-12T09:11:01.453Z,102344.92
2022-11-12T09:14:12.987Z,102331.44
2022-11-12T09:17:24.911Z,102338.13
2022-11-12T09:20:36.777Z,102337.00
2022-11-12T09:23:47.990Z,102332.50
2022-11-12T09:26:59.505Z,102326.50
2022-11-12T09:30:14.048Z,102314.34
2022-11-12T09:33:27.698Z,102320.02
2022-11-12T09:36:40.037Z,102325.03
2022-11-12T09:39:50.834Z,102327.20
2022-11-12T09:43:01.378Z,102321.03
2022-11-12T09:46:27.662Z,102316.02
2022-11-12T09:49:48.389Z,102316.52
2022-11-12T09:53:06.405Z,102315.31
2022-11-12T09:56:21.309Z,102315.13
2022-11-12T09:59:36.005Z,102318.25
2022-11-12T10:02:57.486Z,102307.84
2022-11-12T10:06:19.434Z,102308.81
2022-11-12T10:09:37.862Z,102299.09
2022-11-12T10:13:02.865Z,102303.58
2022-11-12T10:16:45.278Z,102297.84
2022-11-12T10:20:10.486Z,102288.75
2022-11-12T10:23:26.260Z,102296.42
2022-11-12T10:26:38.935Z,102290.66
2022-11-12T10:29:58.675Z,102282.05
2022-11-12T10:33:15.334Z,102280.98
2022-11-12T10:36:31.203Z,102278.44
2022-11-12T10:39:46.451Z,102282.05
2022-11-12T10:43:02.291Z,102277.45
2022-11-12T10:46:22.445Z,102279.77
2022-11-12T10:49:33.690Z,102283.09
2022-11-12T10:52:57.464Z,102274.89
2022-11-12T10:56:27.220Z,102281.91
2022-11-12T10:59:38.582Z,102277.28
2022-11-12T11:02:55.498Z,102279.23
2022-11-12T11:06:20.605Z,102280.63
2022-11-12T11:09:32.185Z,102271.69
2022-11-12T11:12:43.122Z,102269.73
2022-11-12T11:16:05.938Z,102275.10
2022-11-12T11:19:17.943Z,102278.26
2022-11-12T11:22:41.391Z,102274.09
2022-11-12T11:25:56.096Z,102276.39
2022-11-12T11:29:23.072Z,102278.34
2022-11-12T11:32:49.442Z,102280.93
2022-11-12T11:36:21.372Z,102271.70
2022-11-12T11:39:40.782Z,102274.75
2022-11-12T11:43:17.361Z,102269.77
2022-11-12T11:46:41.135Z,102263.46
2022-11-12T11:50:17.196Z,102261.91
2022-11-12T11:53:33.090Z,102272.70
2022-11-12T11:56:45.872Z,102269.23
2022-11-12T12:00:12.561Z,102254.23
2022-11-12T12:03:31.709Z,102253.30
2022-11-12T12:06:48.608Z,102244.13
2022-11-12T12:10:09.269Z,102239.58
2022-11-12T12:13:31.712Z,102244.67
2022-11-12T12:16:59.511Z,102240.05
2022-11-12T12:20:22.354Z,102247.07
2022-11-12T12:23:39.301Z,102244.50
2022-11-12T12:26:55.400Z,102245.70
2022-11-12T12:30:18.758Z,102239.14
2022-11-12T12:33:36.922Z,102245.26
2022-11-12T12:36:49.708Z,102231.09
2022-11-12T12:40:10.344Z,102237.73
2022-11-12T12:43:30.436Z,102238.64
2022-11-12T12:46:45.817Z,102243.16
2022-11-12T12:49:59.130Z,102235.88
2022-11-12T12:53:20.406Z,102243.02
2022-11-12T12:56:51.366Z,102239.31
2022-11-12T13:00:33.602Z,102242.26
2022-11-12T13:03:59.007Z,102241.70
2022-11-12T13:07:11.135Z,102235.38
2022-11-12T13:10:56.613Z,102234.23
2022-11-12T13:14:52.390Z,102241.34
2022-11-12T13:18:04.853Z,102245.73
2022-11-12T13:21:17.715Z,102235.46
2022-11-12T13:24:58.754Z,102242.67
2022-11-12T13:28:12.206Z,102242.03
2022-11-12T13:31:30.766Z,102250.29
2022-11-12T13:34:46.427Z,102252.12
2022-11-12T13:37:59.969Z,102254.38
2022-11-12T13:48:01.971Z,102262.41
2022-11-12T13:57:55.727Z,102275.14
2022-11-12T14:07:50.568Z,102272.70
2022-11-12T14:14:55.520Z,102266.06
2022-11-12T14:18:18.777Z,102263.48
2022-11-12T14:21:29.229Z,102260.04
2022-11-12T14:24:44.212Z,102256.63
2022-11-12T14:27:56.322Z,102260.57
2022-11-12T14:35:34.689Z,102252.41
2022-11-12T14:38:48.183Z,102244.80
2022-11-12T14:46:02.076Z,102237.63
2022-11-12T14:49:20.080Z,102242.55
2022-11-12T15:13:47.498Z,102230.20
2022-11-12T15:16:57.902Z,102238.88
2022-11-12T15:20:17.478Z,102239.73
2022-11-12T15:23:28.010Z,102246.09
2022-11-12T15:26:41.424Z,102245.28
2022-11-12T15:29:52.176Z,102242.42
2022-11-12T15:33:25.532Z,102241.59
2022-11-12T15:36:36.397Z,102237.23
2022-11-12T15:39:50.254Z,102244.20
2022-11-12T15:43:02.585Z,102241.30
2022-11-12T15:46:17.477Z,102249.06
2022-11-12T15:49:30.972Z,102250.48
2022-11-12T15:52:42.412Z,102262.58
2022-11-12T15:55:54.718Z,102256.00
2022-11-12T15:59:06.062Z,102259.09
2022-11-12T16:02:17.684Z,102250.69
2022-11-12T16:05:28.950Z,102254.59
2022-11-12T16:08:39.846Z,102248.67
2022-11-12T16:11:52.506Z,102245.42
2022-11-12T16:15:04.405Z,102252.79
2022-11-12T16:18:15.593Z,102260.17
2022-11-12T16:21:26.071Z,102257.71
2022-11-12T16:24:36.997Z,102259.77
2022-11-12T16:27:52.861Z,102258.95
2022-11-12T16:31:05.821Z,102249.52
2022-11-12T16:34:16.299Z,102248.87
2022-11-12T16:37:27.054Z,102241.09
2022-11-12T16:40:38.064Z,102250.11
2022-11-12T16:43:48.577Z,102245.80
2022-11-12T16:46:59.327Z,102248.64
2022-11-12T16:50:13.684Z,102248.81
2022-11-12T16:53:24.184Z,102247.02
2022-11-12T16:56:36.497Z,102246.20
2022-11-12T16:59:46.616Z,102250.57
2022-11-12T17:02:59.330Z,102255.88
2022-11-12T17:06:10.474Z,102266.36
2022-11-12T17:09:20.847Z,102261.89
2022-11-12T17:12:31.443Z,102266.23
2022-11-12T17:15:42.064Z,102264.55
2022-11-12T17:18:56.438Z,102261.05
2022-11-12T17:22:06.747Z,102269.70
2022-11-12T17:25:17.516Z,102271.34
2022-11-12T17:28:29.391Z,102276.34
2022-11-12T17:31:40.496Z,102270.88
2022-11-12T17:34:51.095Z,102279.38
2022-11-12T17:38:01.464Z,102280.89
2022-11-12T17:41:12.681Z,102284.08
2022-11-12T17:44:23.597Z,102286.41
2022-11-12T17:47:39.292Z,102284.30
2022-11-12T17:50:52.403Z,102282.17
2022-11-12T17:54:03.786Z,102286.33
2022-11-12T17:57:15.678Z,102283.35
2022-11-12T18:00:26.079Z,102282.20
2022-11-12T18:03:38.119Z,102286.48
2022-11-12T18:06:49.084Z,102288.69
2022-11-12T18:09:59.449Z,102290.89
2022-11-12T18:13:09.838Z,102287.09
2022-11-12T18:16:25.337Z,102284.25
2022-11-12T18:19:34.106Z,102289.20
2022-11-12T18:22:45.120Z,102285.28
2022-11-12T18:25:59.215Z,102286.77
2022-11-12T18:29:10.419Z,102279.19
2022-11-12T18:32:21.243Z,102286.67
2022-11-12T18:35:32.207Z,102281.89
2022-11-12T18:38:43.140Z,102285.89
2022-11-12T18:41:55.024Z,102277.50
2022-11-12T18:45:05.944Z,102283.16
2022-11-12T18:48:16.169Z,102282.69
2022-11-12T18:51:26.456Z,102288.48
2022-11-12T18:54:38.194Z,102290.55
2022-11-12T18:57:48.775Z,102290.19
2022-11-12T19:01:02.677Z,102284.44
2022-11-12T19:04:14.742Z,102283.15
2022-11-12T19:07:26.264Z,102287.96
2022-11-12T19:10:36.924Z,102279.56
2022-11-12T19:13:51.374Z,102287.02
2022-11-12T19:17:01.901Z,102278.73
2022-11-12T19:20:14.295Z,102276.72
2022-11-12T19:23:25.264Z,102284.03
2022-11-12T19:26:36.392Z,102282.73
2022-11-12T19:29:47.949Z,102287.53
2022-11-12T19:32:58.965Z,102283.45
2022-11-12T19:36:13.341Z,102289.28
2022-11-12T19:39:24.417Z,102287.84
2022-11-12T19:42:34.620Z,102290.00
2022-11-12T19:45:45.466Z,102288.70
2022-11-12T19:48:56.229Z,102295.27
2022-11-12T19:52:06.833Z,102298.38
2022-11-12T19:55:17.057Z,102302.35
2022-11-12T19:58:27.989Z,102293.09
2022-11-12T20:01:39.967Z,102302.09
2022-11-12T20:04:50.629Z,102306.75
2022-11-12T20:08:01.119Z,102307.21
2022-11-12T20:11:12.912Z,102310.94
2022-11-12T20:14:24.078Z,102300.63
2022-11-12T20:17:37.428Z,102307.81
2022-11-12T20:20:52.930Z,102308.86
2022-11-12T20:24:03.882Z,102296.86
2022-11-12T20:27:16.523Z,102305.86
2022-11-12T20:30:27.148Z,102298.15
2022-11-12T20:33:41.978Z,102297.55
2022-11-12T20:36:55.660Z,102302.10
2022-11-12T20:40:08.917Z,102304.11
2022-11-12T20:43:17.964Z,102306.02
2022-11-12T20:46:28.966Z,102310.80
2022-11-12T20:49:39.364Z,102306.61
2022-11-12T20:52:54.252Z,102313.88
2022-11-12T20:56:11.159Z,102305.38
2022-11-12T20:59:21.646Z,102314.34
2022-11-12T21:02:32.316Z,102316.24
2022-11-12T21:05:43.397Z,102315.52
2022-11-12T21:08:53.967Z,102320.19
2022-11-12T21:12:04.559Z,102323.87
2022-11-12T21:15:15.171Z,102324.95
2022-11-12T21:18:28.736Z,102320.73
2022-11-12T21:21:39.886Z,102320.95
2022-11-12T21:24:50.172Z,102329.08
2022-11-12T21:28:02.265Z,102326.56
2022-11-12T21:31:16.630Z,102323.30
2022-11-12T21:34:27.346Z,102319.33
2022-11-12T21:37:37.546Z,102327.45
2022-11-12T21:40:48.396Z,102319.86
2022-11-12T21:44:00.138Z,102314.81
2022-11-12T21:47:11.364Z,102315.03
2022-11-12T21:50:21.874Z,102318.84
2022-11-12T21:53:32.423Z,102319.91
2022-11-12T21:56:44.293Z,102317.59
2022-11-12T22:00:08.177Z,102320.44
2022-11-12T22:03:31.012Z,102317.29
2022-11-12T22:06:42.443Z,102316.68
2022-11-12T22:09:56.851Z,102316.04
2022-11-12T22:13:37.851Z,102321.52
2022-11-12T22:16:38.813Z,102323.55
2022-11-12T22:19:49.386Z,102314.91
2022-11-12T22:22:59.890Z,102311.64
2022-11-12T22:26:14.818Z,102310.08
2022-11-12T22:29:25.487Z,102311.97
2022-11-12T22:32:37.340Z,102314.70
2022-11-12T22:35:48.006Z,102311.45
2022-11-12T22:38:59.245Z,102310.72
2022-11-12T22:42:09.664Z,102305.76
2022-11-12T22:45:20.224Z,102305.02
2022-11-12T22:48:31.005Z,102304.41
2022-11-12T22:51:42.247Z,102305.56
2022-11-12T22:54:39.651Z,102307.46
2022-11-12T22:57:50.887Z,102306.72
2022-11-12T23:01:01.369Z,102304.39
2022-11-12T23:04:12.074Z,102301.02
2022-11-12T23:07:22.734Z,102303.12
2022-11-12T23:10:33.448Z,102305.88
2022-11-12T23:13:44.308Z,102304.49
2022-11-12T23:16:55.179Z,102312.38
2022-11-12T23:20:07.322Z,102305.64
2022-11-12T23:23:18.186Z,102297.97
2022-11-12T23:26:33.504Z,102291.97
2022-11-12T23:29:44.920Z,102286.91
2022-11-12T23:32:56.416Z,102287.98
2022-11-12T23:36:12.229Z,102284.49
2022-11-12T23:39:22.835Z,102286.38
2022-11-12T23:42:33.567Z,102283.02
2022-11-12T23:45:45.527Z,102288.39
2022-11-12T23:48:56.469Z,102289.42
2022-11-12T23:52:07.304Z,102292.05
2022-11-12T23:55:18.200Z,102283.63
2022-11-12T23:58:29.284Z,102275.87
